Latest Coastal Weather Observations for Maatsuyker Island

IDT60701

Issued at 2:52 pm EST Friday 30 September 2016 (issued every 10 minutes, with the page automatically refreshed every 10 minutes)

About coastal observations | Map of coastal stations | Coastal observations for TAS | Marine services | Other Formats
Station Details ID: 094041 Name: MAATSUYKER ISLAND LIGHTHOUSE Lat: -43.66 Lon: 146.27 Height: 146.5 m
Data from the previous 72 hours. | See also: Recent months at Maatsuyker Island
Date/Time
EST
Temp
°C
Wind Pressure Rain since
9am
mm
Weather Cloud Vis
km
Sea
Height
m
Swell
Dir  Spd
kts
Gust
kts
hPa Trend Height
m
Period
s
Dir
30/02:30pm 11.1 N 8 12 986.9 - 2.8 - - - - - - -
30/02:00pm 11.5 NNW 8 17 987.5 - 2.8 - - - - - - -
30/01:30pm 11.4 NNW 7 11 988.3 - 2.4 - - - - - - -
30/01:00pm 11.5 NNW 7 14 988.8 - 2.4 - - - - - - -
30/12:30pm 11.5 NNW 7 12 989.4 - 2.4 - - - - - - -
30/12:00pm 11.6 NNW 7 11 989.8 - 2.2 - - - - - - -
30/11:30am 11.4 NNW 7 13 990.3 - 2.2 - - - - - - -
30/11:00am 11.4 NNW 8 15 990.3 - 2.0 - - - - - - -
30/10:30am 11.4 NNW 7 11 990.9 - 1.4 - - - - - - -
30/10:00am 11.3 NNW 8 12 991.1 - 0.8 - - - - - - -
30/09:30am 11.6 NNW 7 11 991.7 - 0.2 - - - - - - -
30/09:00am 11.7 ENE 12 14 992.4 S 1.0 Drizzle Cloudy 0 2 1.5 13 SW
30/08:30am 11.5 NW 8 14 992.4 - 0.8 - - - - - - -
30/08:00am 11.4 NW 9 18 992.2 - 0.6 - - - - - - -
30/07:30am 11.4 NW 8 14 992.4 - 0.4 - - - - - - -
30/07:00am 11.5 NW 9 21 992.2 - 0.2 - - - - - - -
30/06:30am 11.7 NW 9 16 992.0 - 0.2 - - - - - - -
30/06:00am 11.7 E 15 15 991.5 S 0.0 Rain Cloudy 4 2 2.0 10 SW
30/05:30am 11.8 NW 10 18 991.3 - 0.0 - - - - - - -
30/05:00am 11.8 NNW 12 17 991.3 - 0.0 - - - - - - -
30/04:30am 11.8 NW 10 20 991.6 - 0.0 - - - - - - -
30/04:00am 11.8 NW 13 33 991.1 - 0.0 - - - - - - -
30/03:30am 11.8 NW 11 21 991.3 - 0.0 - - - - - - -
30/03:00am 11.6 NW 11 15 991.4 - 0.0 - - - - - - -
30/02:30am 11.5 NW 11 25 991.8 - 0.0 - - - - - - -
30/02:00am 11.6 WNW 12 25 991.3 - 0.0 - - - - - - -
30/01:30am 11.5 NW 12 21 991.4 - 0.0 - - - - - - -
30/01:00am 11.5 NW 10 26 992.0 - 0.0 - - - - - - -
30/12:30am 11.9 WNW 8 20 991.9 - 0.0 - - - - - - -
30/12:00am 11.8 NW 11 23 992.0 - 0.0 - - - - - - -
 
Date/Time
EST
Temp
°C
Wind Pressure Rain since
9am
mm
Weather Cloud Vis
km
Sea
Height
m
Swell
Dir  Spd
kts
Gust
kts
hPa Trend Height
m
Period
s
Dir
29/11:47pm 11.9 N 19 34 991.3 - 0.0 - - - - - - -
29/11:30pm 11.8 NW 10 21 992.4 - 0.0 - - - - - - -
29/11:00pm 11.8 WNW 9 19 992.8 - 0.0 - - - - - - -
29/10:30pm 11.9 WNW 10 18 992.7 - 0.0 - - - - - - -
29/10:07pm 12.0 NNW 15 27 992.5 - 0.0 - - - - - - -
29/10:00pm 12.0 W 9 13 993.0 - 0.0 - - - - - - -
29/09:30pm 12.1 NW 10 22 993.7 - 0.0 - - - - - - -
29/09:00pm 12.2 WNW 10 14 993.0 - 0.0 - - - - - - -
29/08:30pm 12.6 NW 11 27 992.8 - 0.0 - - - - - - -
29/08:00pm 12.7 WNW 11 21 993.0 - 0.0 - - - - - - -
29/07:30pm 12.5 NW 9 15 993.1 - 0.0 - - - - - - -
29/07:00pm 12.6 NW 9 18 992.5 - 0.0 - - - - - - -
29/06:30pm 12.5 N 11 19 992.7 - 0.0 - - - - - - -
29/06:00pm 12.5 NW 10 19 993.0 - 0.0 - - - - - - -
29/05:30pm 12.6 NW 11 25 992.4 - 0.0 - - - - - - -
29/05:00pm 12.6 WNW 11 15 992.2 - 0.0 - - - - - - -
29/04:30pm 12.6 W 9 13 992.0 - 0.0 - - - - - - -
29/04:00pm 12.6 WNW 11 21 992.1 - 0.0 - - - - - - -
29/03:30pm 12.5 WNW 10 25 991.6 - 0.0 - - - - - - -
29/03:00pm 12.5 NW 10 20 992.5 - 0.0 - - - - - - -
29/02:30pm 12.6 NNW 12 22 992.7 - 0.0 - - - - - - -
29/02:00pm 12.8 NW 9 23 993.0 - 0.0 - - - - - - -
29/01:30pm 13.0 NW 10 18 993.1 - 0.0 - - - - - - -
29/01:00pm 13.1 NW 10 17 993.5 - 0.0 - - - - - - -
29/12:30pm 13.1 WNW 9 16 994.0 - 0.0 - - - - - - -
29/12:00pm 13.1 NNW 11 18 994.4 - 0.0 - - - - - - -
29/11:30am 13.5 WNW 7 13 994.5 - 0.0 - - - - - - -
29/11:00am 13.7 NW 7 13 995.4 - 0.0 - - - - - - -
29/10:30am 13.7 NW 7 17 995.7 - 0.0 - - - - - - -
29/10:00am 14.0 NNE 8 20 995.6 - 0.0 - - - - - - -
29/09:30am 14.0 WNW 8 17 996.1 - 0.0 - - - - - - -
29/09:00am 14.5 E 23 21 996.4 F 0.2 Squalls Mostly cloudy 40 2 4.0 11 SW
29/08:30am 14.1 NE 11 18 996.5 - 0.2 - - - - - - -
29/08:00am 13.7 NNW 6 12 996.3 - 0.2 - - - - - - -
29/07:30am 13.2 NNE 10 21 996.2 - 0.2 - - - - - - -
29/07:00am 12.6 NE 9 20 996.5 - 0.2 - - - - - - -
29/06:30am 12.5 NNE 9 21 996.5 - 0.2 - - - - - - -
29/06:00am 12.1 NE 23 21 996.6 F 0.2 Squalls Partly cloudy 40 2 3.0 14 W
29/05:30am 12.1 NE 10 13 996.6 - 0.2 - - - - - - -
29/05:00am 11.8 NE 10 17 996.9 - 0.2 - - - - - - -
29/04:30am 11.3 N 8 12 997.1 - 0.2 - - - - - - -
29/04:00am 11.2 NE 10 13 997.7 - 0.2 - - - - - - -
29/03:30am 11.0 NNE 9 13 997.8 - 0.2 - - - - - - -
29/03:00am 11.0 N 10 13 998.1 - 0.2 - - - - - - -
29/02:30am 11.1 NNE 10 13 998.4 - 0.2 - - - - - - -
29/02:00am 11.1 NNE 7 10 999.3 - 0.2 - - - - - - -
29/01:30am 11.6 E 13 19 999.8 - 0.2 - - - - - - -
29/01:00am 11.6 ENE 10 17 1000.3 - 0.2 - - - - - - -
29/12:30am 11.8 ENE 13 19 1000.6 - 0.2 - - - - - - -
29/12:00am 11.7 ENE 10 14 1001.2 - 0.2 - - - - - - -
 
Date/Time
EST
Temp
°C
Wind Pressure Rain since
9am
mm
Weather Cloud Vis
km
Sea
Height
m
Swell
Dir  Spd
kts
Gust
kts
hPa Trend Height
m
Period
s
Dir
28/11:30pm 11.7 ENE 9 14 1001.9 - 0.2 - - - - - - -
28/11:00pm 11.5 ENE 10 15 1002.4 - 0.2 - - - - - - -
28/10:30pm 11.4 ENE 13 17 1002.7 - 0.2 - - - - - - -
28/10:00pm 11.1 E 12 18 1003.0 - 0.2 - - - - - - -
28/09:30pm 11.1 E 11 16 1003.3 - 0.2 - - - - - - -
28/09:00pm 11.1 E 10 17 1003.8 - 0.2 - - - - - - -
28/08:30pm 11.1 ENE 9 16 1003.9 - 0.2 - - - - - - -
28/08:00pm 10.8 NW 6 10 1003.6 - 0.2 - - - - - - -
28/07:30pm 10.8 WNW 6 11 1003.9 - 0.2 - - - - - - -
28/07:00pm 10.5 WNW 6 10 1004.1 - 0.2 - - - - - - -
28/06:30pm 10.5 WNW 7 12 1004.1 - 0.2 - - - - - - -
28/06:00pm 10.6 NW 7 14 1004.1 - 0.2 - - - - - - -
28/05:30pm 11.0 NW 5 10 1003.9 - 0.2 - - - - - - -
28/05:00pm 11.9 NW 4 8 1004.1 - 0.2 - - - - - - -
28/04:30pm 12.5 NNW 3 8 1004.3 - 0.2 - - - - - - -
28/04:00pm 12.4 NNW 3 5 1004.9 - 0.2 - - - - - - -
28/03:30pm 12.3 SE 10 15 1005.2 - 0.2 - - - - - - -
28/03:00pm 12.5 SSE 9 9 1006.0 - 0.2 - - - - - - -
28/02:30pm 12.3 SSW 6 8 1006.3 - 0.2 - - - - - - -
28/02:00pm 12.3 SW 7 9 1006.5 - 0.2 - - - - - - -
28/01:30pm 13.2 W 7 9 1006.6 - 0.2 - - - - - - -
28/01:00pm 12.6 W 9 10 1006.9 - 0.2 - - - - - - -
28/12:30pm 13.1 NW 12 14 1007.3 - 0.2 - - - - - - -
28/12:00pm 12.2 NW 12 14 1007.9 - 0.2 - - - - - - -
28/11:30am 11.6 NW 13 15 1008.0 - 0.2 - - - - - - -
28/11:00am 10.7 NNW 12 15 1008.1 - 0.2 - - - - - - -
28/10:30am 10.7 NNW 12 14 1008.4 - 0.2 - - - - - - -
28/10:00am 9.6 NW 12 16 1008.8 - 0.2 - - - - - - -
28/09:30am 9.5 NW 23 28 1008.3 - 0.2 - - - - - - -
28/09:00am 9.5 WNW 17 22 1008.7 F 3.4 Rain Partly cloudy 15 1 1.5 12 W
28/08:30am 9.5 NNW 13 16 1008.7 - 3.4 - - - - - - -
28/08:00am 9.0 NNW 12 15 1008.9 - 3.4 - - - - - - -
28/07:30am 8.6 NNW 13 17 1008.9 - 3.4 - - - - - - -
28/07:00am 8.4 NNW 13 16 1008.8 - 3.4 - - - - - - -
28/06:30am 8.5 NNW 15 22 1008.4 - 3.4 - - - - - - -
28/06:00am 9.0 NNW 10 21 1008.2 R 3.4 Distant precip. Partly cloudy 12 <0.5 1.0 12 SW
28/05:30am 9.1 NNW 14 19 1007.8 - 3.4 - - - - - - -
28/05:00am 9.0 NNW 13 17 1007.6 - 3.4 - - - - - - -
28/04:30am 9.1 NNW 14 18 1007.4 - 3.4 - - - - - - -
28/04:00am 9.0 NNW 14 18 1007.4 - 3.4 - - - - - - -
28/03:45am 9.1 N 13 15 1007.3 - 3.4 - - - - - - -
28/03:30am 9.7 NW 20 24 1007.1 - 3.4 - - - - - - -
28/03:00am 9.5 NW 21 25 1007.0 - 3.4 - - - - - - -
28/02:30am 9.5 NW 21 24 1006.8 - 3.4 - - - - - - -
28/02:00am 9.3 NNW 19 24 1006.7 - 3.4 - - - - - - -
28/01:30am 9.4 NNW 17 22 1006.8 - 3.4 - - - - - - -
28/01:00am 8.2 NNW 13 16 1006.8 - 3.4 - - - - - - -
28/12:30am 8.5 NW 19 22 1006.5 - 2.8 - - - - - - -
28/12:00am 9.3 NW 15 19 1006.6 - 0.8 - - - - - - -
 
Date/Time
EST
Temp
°C
Wind Pressure Rain since
9am
mm
Weather Cloud Vis
km
Sea
Height
m
Swell
Dir  Spd
kts
Gust
kts
hPa Trend Height
m
Period
s
Dir
27/11:30pm 9.1 NNW 12 17 1006.6 - 0.6 - - - - - - -
27/11:00pm 9.0 NNW 14 19 1006.6 - 0.6 - - - - - - -
27/10:30pm 9.7 NNW 13 17 1006.7 - 0.2 - - - - - - -
27/10:00pm 10.4 NNW 17 21 1006.5 - 0.0 - - - - - - -
27/09:30pm 10.5 NNW 16 21 1006.4 - 0.0 - - - - - - -
27/09:00pm 10.5 NNW 17 25 1006.6 - 0.0 - - - - - - -
27/08:30pm 10.3 NNW 26 32 1006.3 - 0.0 - - - - - - -
27/08:00pm 10.6 NW 19 25 1006.5 - 0.0 - - - - - - -
27/07:30pm 10.7 NW 23 29 1006.5 - 0.0 - - - - - - -
27/07:00pm 10.9 NNW 20 27 1006.4 - 0.0 - - - - - - -
27/06:30pm 11.1 NNW 20 25 1006.2 - 0.0 - - - - - - -
27/06:00pm 11.3 NNW 21 25 1006.3 - 0.0 - - - - - - -
27/05:30pm 11.4 NNW 21 27 1005.8 - 0.0 - - - - - - -
27/05:00pm 11.6 NNW 19 24 1005.7 - 0.0 - - - - - - -
27/04:30pm 11.4 NNW 23 27 1005.7 - 0.0 - - - - - - -
27/04:00pm 11.2 NW 26 30 1005.5 - 0.0 - - - - - - -
27/03:30pm 11.7 NW 26 30 1005.4 - 0.0 - - - - - - -
27/03:00pm 11.9 NW 26 30 1005.4 - 0.0 - - - - - - -

Other Formats:

Comma delimited format used in spreadsheet applications
http://www.bom.gov.au/fwo/IDT60701/IDT60701.94962.axf

JavaScript Object Notation format (JSON) in row-major order
http://www.bom.gov.au/fwo/IDT60701/IDT60701.94962.json